Friday, May 25, 2018, 8:29 AM EDT
Back to Local

KPBG, Plattsburgh International Airport

Location: Plattsburgh, NY, United States Lat: 44.65
Local Time: 8:29 AM EDT (12:29 GMT) Lon: -73.467
Time Zone: US/Eastern Elev: 239 ft

Show me the last for .
Show Coded

Time T Td Feel RH Dir Speed Gust Alt SLP Vis Weather Sky Remarks
2018-05-25 07:53 73 49 76 42 250° 8 20 29.84 29.84 10 CLR 6-hr Min Temp (8am): 57.9°F
6-hr Max Temp (8am): 73.0°F
2018-05-25 06:53 67 47 - 48 - - - 29.85 29.85 10 SCT095 Peak wind: 31 mph (27 kts) from 200° at 33 min
2018-05-25 05:53 67 45 - 45 230° 7 - 29.86 29.86 10 CLR None
2018-05-25 04:53 66 45 - 46 Variable 3 - 29.86 29.86 10 CLR None
2018-05-25 03:53 62 47 - 57 - Calm - 29.86 29.85 10 CLR None
2018-05-25 02:53 64 48 - 55 170° 9 - 29.86 29.86 10 CLR None
2018-05-25 01:53 61 47 - 59 180° 6 - 29.88 29.88 10 CLR 6-hr Min Temp (2am): 50.0°F
6-hr Max Temp (2am): 64.0°F
2018-05-25 00:53 59 46 - 62 190° 5 - 29.90 29.90 10 CLR 24-hr Min Temp (1am): 50.0°F
24-hr Max Temp (1am): 69.1°F
2018-05-24 23:53 55 45 - 68 210° 3 - 29.92 29.92 10 CLR None
2018-05-24 22:53 51 46 - 82 200° 3 - 29.94 29.94 10 CLR None
2018-05-24 21:53 54 45 - 71 - Calm - 29.96 29.96 10 CLR None
2018-05-24 20:53 57 42 - 57 - Calm - 29.97 29.97 10 CLR None
2018-05-24 19:53 62 38 - 40 - Calm - 29.98 29.98 10 CLR 6-hr Min Temp (8pm): 62.1°F
6-hr Max Temp (8pm): 69.1°F
2018-05-24 18:53 68 35 - 29 - Calm - 30.00 30.00 10 CLR None
2018-05-24 17:53 69 32 - 25 140° 6 - 30.02 30.02 10 CLR None
2018-05-24 16:53 68 30 - 24 130° 7 - 30.04 30.03 10 CLR None
2018-05-24 15:53 68 32 - 26 150° 7 - 30.06 30.06 10 CLR None
2018-05-24 14:53 65 32 - 29 140° 9 - 30.08 30.08 10 CLR None
2018-05-24 13:53 65 33 - 30 90° 7 - 30.10 30.10 10 CLR 6-hr Min Temp (2pm): 57.0°F
6-hr Max Temp (2pm): 64.9°F
2018-05-24 12:53 63 32 - 31 140° 8 - 30.13 30.13 10 CLR None
2018-05-24 11:53 62 30 - 29 Variable 7 - 30.15 30.15 10 CLR None
2018-05-24 10:53 61 29 - 29 80° 10 - 30.15 30.15 10 CLR None
2018-05-24 09:53 60 28 - 29 10° 7 - 30.17 30.16 10 OVC090 None
2018-05-24 08:53 58 28 - 31 330° 10 - 30.17 30.17 10 OVC095 None

Support USWX by starting your Amazon purchase here.